sensor_id;sensor_type;location;lat;lon;timestamp;P1;durP1;ratioP1;P2;durP2;ratioP2
38455;SDS011;24237;50.106;20.014;2023-04-06T00:01:36;30.00;;;14.48;;
38455;SDS011;24237;50.106;20.014;2023-04-06T00:04:02;32.80;;;13.98;;
38455;SDS011;24237;50.106;20.014;2023-04-06T00:06:27;25.75;;;12.23;;
38455;SDS011;24237;50.106;20.014;2023-04-06T00:08:53;26.10;;;10.85;;
38455;SDS011;24237;50.106;20.014;2023-04-06T00:11:20;26.27;;;12.88;;
38455;SDS011;24237;50.106;20.014;2023-04-06T00:13:45;27.52;;;11.65;;
38455;SDS011;24237;50.106;20.014;2023-04-06T00:16:11;28.60;;;13.38;;
38455;SDS011;24237;50.106;20.014;2023-04-06T00:18:37;24.55;;;12.43;;
38455;SDS011;24237;50.106;20.014;2023-04-06T00:21:03;26.80;;;12.82;;
38455;SDS011;24237;50.106;20.014;2023-04-06T00:23:28;27.83;;;12.93;;
38455;SDS011;24237;50.106;20.014;2023-04-06T00:25:54;31.85;;;14.32;;
38455;SDS011;24237;50.106;20.014;2023-04-06T00:28:20;26.80;;;12.23;;
38455;SDS011;24237;50.106;20.014;2023-04-06T00:30:50;26.75;;;12.55;;
38455;SDS011;24237;50.106;20.014;2023-04-06T00:33:17;30.55;;;13.77;;
38455;SDS011;24237;50.106;20.014;2023-04-06T00:35:43;27.70;;;12.35;;
38455;SDS011;24237;50.106;20.014;2023-04-06T00:38:09;34.33;;;13.60;;
38455;SDS011;24237;50.106;20.014;2023-04-06T00:40:35;35.25;;;12.50;;
38455;SDS011;24237;50.106;20.014;2023-04-06T00:43:00;28.73;;;12.55;;
38455;SDS011;24237;50.106;20.014;2023-04-06T00:45:26;24.30;;;10.98;;
38455;SDS011;24237;50.106;20.014;2023-04-06T00:47:53;26.90;;;11.70;;
38455;SDS011;24237;50.106;20.014;2023-04-06T00:50:18;32.50;;;11.50;;
38455;SDS011;24237;50.106;20.014;2023-04-06T00:52:44;25.40;;;10.73;;
38455;SDS011;24237;50.106;20.014;2023-04-06T00:55:10;29.48;;;13.18;;
38455;SDS011;24237;50.106;20.014;2023-04-06T00:57:35;24.77;;;11.43;;
38455;SDS011;24237;50.106;20.014;2023-04-06T01:00:02;26.98;;;12.23;;
38455;SDS011;24237;50.106;20.014;2023-04-06T01:02:28;31.98;;;11.85;;
38455;SDS011;24237;50.106;20.014;2023-04-06T01:04:54;26.98;;;11.45;;
38455;SDS011;24237;50.106;20.014;2023-04-06T01:07:20;24.92;;;11.48;;
38455;SDS011;24237;50.106;20.014;2023-04-06T01:09:45;27.05;;;10.27;;
38455;SDS011;24237;50.106;20.014;2023-04-06T01:12:11;22.85;;;11.25;;
38455;SDS011;24237;50.106;20.014;2023-04-06T01:14:36;25.23;;;11.27;;
38455;SDS011;24237;50.106;20.014;2023-04-06T01:17:02;26.98;;;12.65;;
38455;SDS011;24237;50.106;20.014;2023-04-06T01:19:28;28.35;;;12.00;;
38455;SDS011;24237;50.106;20.014;2023-04-06T01:21:53;27.33;;;12.82;;
38455;SDS011;24237;50.106;20.014;2023-04-06T01:24:20;27.67;;;12.48;;
38455;SDS011;24237;50.106;20.014;2023-04-06T01:26:45;31.80;;;13.15;;
38455;SDS011;24237;50.106;20.014;2023-04-06T01:29:11;27.98;;;13.10;;
38455;SDS011;24237;50.106;20.014;2023-04-06T01:31:37;32.92;;;13.27;;
38455;SDS011;24237;50.106;20.014;2023-04-06T01:34:03;31.30;;;12.63;;
38455;SDS011;24237;50.106;20.014;2023-04-06T01:36:29;30.23;;;13.30;;
38455;SDS011;24237;50.106;20.014;2023-04-06T01:38:55;30.67;;;13.48;;
38455;SDS011;24237;50.106;20.014;2023-04-06T01:41:21;29.30;;;12.70;;
38455;SDS011;24237;50.106;20.014;2023-04-06T01:43:47;29.40;;;13.32;;
38455;SDS011;24237;50.106;20.014;2023-04-06T01:46:13;29.27;;;12.77;;
38455;SDS011;24237;50.106;20.014;2023-04-06T01:48:39;30.60;;;13.60;;
38455;SDS011;24237;50.106;20.014;2023-04-06T01:51:05;30.33;;;14.43;;
38455;SDS011;24237;50.106;20.014;2023-04-06T01:53:30;27.70;;;13.48;;
38455;SDS011;24237;50.106;20.014;2023-04-06T01:55:56;30.83;;;13.57;;
38455;SDS011;24237;50.106;20.014;2023-04-06T01:58:21;32.72;;;14.73;;
38455;SDS011;24237;50.106;20.014;2023-04-06T02:00:47;33.63;;;14.05;;
38455;SDS011;24237;50.106;20.014;2023-04-06T02:03:12;26.73;;;13.65;;
38455;SDS011;24237;50.106;20.014;2023-04-06T02:05:39;35.92;;;14.27;;
38455;SDS011;24237;50.106;20.014;2023-04-06T02:08:05;34.25;;;15.10;;
38455;SDS011;24237;50.106;20.014;2023-04-06T02:10:31;29.13;;;13.63;;
38455;SDS011;24237;50.106;20.014;2023-04-06T02:12:57;31.70;;;14.25;;
38455;SDS011;24237;50.106;20.014;2023-04-06T02:15:23;32.20;;;14.77;;
38455;SDS011;24237;50.106;20.014;2023-04-06T02:17:49;32.00;;;14.35;;
38455;SDS011;24237;50.106;20.014;2023-04-06T02:20:14;37.20;;;14.60;;
38455;SDS011;24237;50.106;20.014;2023-04-06T02:22:40;29.83;;;14.32;;
38455;SDS011;24237;50.106;20.014;2023-04-06T02:25:05;37.17;;;14.15;;
38455;SDS011;24237;50.106;20.014;2023-04-06T02:27:31;28.60;;;14.07;;
38455;SDS011;24237;50.106;20.014;2023-04-06T02:29:57;30.23;;;13.95;;
38455;SDS011;24237;50.106;20.014;2023-04-06T02:32:23;30.02;;;14.57;;
38455;SDS011;24237;50.106;20.014;2023-04-06T02:34:49;30.10;;;13.75;;
38455;SDS011;24237;50.106;20.014;2023-04-06T02:37:14;32.97;;;14.13;;
38455;SDS011;24237;50.106;20.014;2023-04-06T02:39:40;34.58;;;14.02;;
38455;SDS011;24237;50.106;20.014;2023-04-06T02:42:06;29.15;;;12.98;;
38455;SDS011;24237;50.106;20.014;2023-04-06T02:44:33;30.60;;;12.40;;
38455;SDS011;24237;50.106;20.014;2023-04-06T02:46:59;24.23;;;11.38;;
38455;SDS011;24237;50.106;20.014;2023-04-06T02:49:24;30.83;;;13.18;;
38455;SDS011;24237;50.106;20.014;2023-04-06T02:51:50;34.30;;;12.43;;
38455;SDS011;24237;50.106;20.014;2023-04-06T02:54:15;26.35;;;12.27;;
38455;SDS011;24237;50.106;20.014;2023-04-06T02:56:41;33.13;;;12.85;;
38455;SDS011;24237;50.106;20.014;2023-04-06T02:59:07;25.33;;;12.13;;
38455;SDS011;24237;50.106;20.014;2023-04-06T03:01:32;34.50;;;13.05;;
38455;SDS011;24237;50.106;20.014;2023-04-06T03:03:58;27.63;;;13.63;;
38455;SDS011;24237;50.106;20.014;2023-04-06T03:06:23;29.08;;;12.93;;
38455;SDS011;24237;50.106;20.014;2023-04-06T03:08:49;27.95;;;11.93;;
38455;SDS011;24237;50.106;20.014;2023-04-06T03:11:15;28.25;;;12.02;;
38455;SDS011;24237;50.106;20.014;2023-04-06T03:13:40;27.00;;;13.20;;
38455;SDS011;24237;50.106;20.014;2023-04-06T03:16:06;22.92;;;12.80;;
38455;SDS011;24237;50.106;20.014;2023-04-06T03:18:32;29.08;;;13.80;;
38455;SDS011;24237;50.106;20.014;2023-04-06T03:20:58;31.85;;;11.55;;
38455;SDS011;24237;50.106;20.014;2023-04-06T03:23:25;35.70;;;13.55;;
38455;SDS011;24237;50.106;20.014;2023-04-06T03:25:50;27.42;;;13.43;;
38455;SDS011;24237;50.106;20.014;2023-04-06T03:28:16;30.45;;;13.00;;
38455;SDS011;24237;50.106;20.014;2023-04-06T03:30:42;36.17;;;14.48;;
38455;SDS011;24237;50.106;20.014;2023-04-06T03:33:08;31.35;;;14.55;;
38455;SDS011;24237;50.106;20.014;2023-04-06T03:35:33;37.13;;;15.35;;
38455;SDS011;24237;50.106;20.014;2023-04-06T03:37:59;36.25;;;13.27;;
38455;SDS011;24237;50.106;20.014;2023-04-06T03:40:24;28.85;;;14.00;;
38455;SDS011;24237;50.106;20.014;2023-04-06T03:42:50;28.73;;;13.43;;
38455;SDS011;24237;50.106;20.014;2023-04-06T03:45:16;31.70;;;14.13;;
38455;SDS011;24237;50.106;20.014;2023-04-06T03:47:41;34.17;;;14.55;;
38455;SDS011;24237;50.106;20.014;2023-04-06T03:50:07;36.30;;;14.88;;
38455;SDS011;24237;50.106;20.014;2023-04-06T03:52:34;37.70;;;17.33;;
38455;SDS011;24237;50.106;20.014;2023-04-06T03:55:00;39.03;;;15.10;;
38455;SDS011;24237;50.106;20.014;2023-04-06T03:57:25;34.10;;;15.35;;
38455;SDS011;24237;50.106;20.014;2023-04-06T03:59:51;33.22;;;15.32;;
38455;SDS011;24237;50.106;20.014;2023-04-06T04:02:17;31.70;;;15.63;;
38455;SDS011;24237;50.106;20.014;2023-04-06T04:04:42;34.40;;;15.05;;
38455;SDS011;24237;50.106;20.014;2023-04-06T04:07:08;41.42;;;15.50;;
38455;SDS011;24237;50.106;20.014;2023-04-06T04:09:33;33.72;;;15.25;;
38455;SDS011;24237;50.106;20.014;2023-04-06T04:11:59;44.72;;;17.33;;
38455;SDS011;24237;50.106;20.014;2023-04-06T04:14:25;37.10;;;14.85;;
38455;SDS011;24237;50.106;20.014;2023-04-06T04:16:50;36.85;;;15.93;;
38455;SDS011;24237;50.106;20.014;2023-04-06T04:19:16;34.20;;;16.02;;
38455;SDS011;24237;50.106;20.014;2023-04-06T04:21:42;39.10;;;15.60;;
38455;SDS011;24237;50.106;20.014;2023-04-06T04:24:11;40.45;;;16.17;;
38455;SDS011;24237;50.106;20.014;2023-04-06T04:26:38;39.30;;;15.65;;
38455;SDS011;24237;50.106;20.014;2023-04-06T04:29:04;44.22;;;17.15;;
38455;SDS011;24237;50.106;20.014;2023-04-06T04:31:30;39.72;;;15.50;;
38455;SDS011;24237;50.106;20.014;2023-04-06T04:33:56;40.95;;;16.92;;
38455;SDS011;24237;50.106;20.014;2023-04-06T04:36:22;40.13;;;15.88;;
38455;SDS011;24237;50.106;20.014;2023-04-06T04:38:49;43.92;;;16.73;;
38455;SDS011;24237;50.106;20.014;2023-04-06T04:41:15;42.25;;;15.07;;
38455;SDS011;24237;50.106;20.014;2023-04-06T04:43:40;37.35;;;16.48;;
38455;SDS011;24237;50.106;20.014;2023-04-06T04:46:06;35.35;;;15.07;;
38455;SDS011;24237;50.106;20.014;2023-04-06T04:48:32;39.15;;;14.70;;
38455;SDS011;24237;50.106;20.014;2023-04-06T04:50:58;34.58;;;14.98;;
38455;SDS011;24237;50.106;20.014;2023-04-06T04:53:23;40.38;;;14.57;;
38455;SDS011;24237;50.106;20.014;2023-04-06T04:55:49;35.67;;;15.05;;
38455;SDS011;24237;50.106;20.014;2023-04-06T04:58:15;34.28;;;15.13;;
38455;SDS011;24237;50.106;20.014;2023-04-06T05:00:44;39.40;;;14.88;;
38455;SDS011;24237;50.106;20.014;2023-04-06T05:03:14;32.22;;;13.20;;
38455;SDS011;24237;50.106;20.014;2023-04-06T05:05:45;33.80;;;13.85;;
38455;SDS011;24237;50.106;20.014;2023-04-06T05:08:11;39.47;;;14.52;;
38455;SDS011;24237;50.106;20.014;2023-04-06T05:10:37;29.13;;;14.75;;
38455;SDS011;24237;50.106;20.014;2023-04-06T05:13:02;38.20;;;15.55;;
38455;SDS011;24237;50.106;20.014;2023-04-06T05:15:28;37.40;;;14.82;;
38455;SDS011;24237;50.106;20.014;2023-04-06T05:17:54;34.90;;;15.48;;
38455;SDS011;24237;50.106;20.014;2023-04-06T05:20:20;37.15;;;14.60;;
38455;SDS011;24237;50.106;20.014;2023-04-06T05:22:45;42.40;;;14.40;;
38455;SDS011;24237;50.106;20.014;2023-04-06T05:25:11;39.65;;;16.02;;
38455;SDS011;24237;50.106;20.014;2023-04-06T05:27:37;55.70;;;15.60;;
38455;SDS011;24237;50.106;20.014;2023-04-06T05:30:04;41.20;;;14.15;;
38455;SDS011;24237;50.106;20.014;2023-04-06T05:32:30;35.65;;;13.73;;
38455;SDS011;24237;50.106;20.014;2023-04-06T05:34:56;39.95;;;13.77;;
38455;SDS011;24237;50.106;20.014;2023-04-06T05:37:21;29.08;;;12.77;;
38455;SDS011;24237;50.106;20.014;2023-04-06T05:39:47;33.90;;;14.60;;
38455;SDS011;24237;50.106;20.014;2023-04-06T05:42:12;28.38;;;13.75;;
38455;SDS011;24237;50.106;20.014;2023-04-06T05:44:38;32.33;;;14.40;;
38455;SDS011;24237;50.106;20.014;2023-04-06T05:47:04;32.13;;;13.98;;
38455;SDS011;24237;50.106;20.014;2023-04-06T05:49:29;28.73;;;12.57;;
38455;SDS011;24237;50.106;20.014;2023-04-06T05:51:55;38.90;;;15.13;;
38455;SDS011;24237;50.106;20.014;2023-04-06T05:54:20;26.63;;;11.93;;
38455;SDS011;24237;50.106;20.014;2023-04-06T05:56:46;32.70;;;12.40;;
38455;SDS011;24237;50.106;20.014;2023-04-06T05:59:12;33.22;;;13.63;;
38455;SDS011;24237;50.106;20.014;2023-04-06T06:01:37;31.00;;;12.52;;
38455;SDS011;24237;50.106;20.014;2023-04-06T06:04:03;28.02;;;13.05;;
38455;SDS011;24237;50.106;20.014;2023-04-06T06:06:29;29.35;;;12.50;;
38455;SDS011;24237;50.106;20.014;2023-04-06T06:08:57;36.40;;;12.45;;
38455;SDS011;24237;50.106;20.014;2023-04-06T06:11:28;29.58;;;12.20;;
38455;SDS011;24237;50.106;20.014;2023-04-06T06:13:54;24.85;;;11.38;;
38455;SDS011;24237;50.106;20.014;2023-04-06T06:16:20;24.58;;;11.38;;
38455;SDS011;24237;50.106;20.014;2023-04-06T06:18:45;31.30;;;12.48;;
38455;SDS011;24237;50.106;20.014;2023-04-06T06:21:11;36.38;;;12.20;;
38455;SDS011;24237;50.106;20.014;2023-04-06T06:23:37;30.92;;;13.65;;
38455;SDS011;24237;50.106;20.014;2023-04-06T06:26:03;31.42;;;12.80;;
38455;SDS011;24237;50.106;20.014;2023-04-06T06:28:29;36.45;;;15.23;;
38455;SDS011;24237;50.106;20.014;2023-04-06T06:30:55;25.65;;;12.20;;
38455;SDS011;24237;50.106;20.014;2023-04-06T06:33:21;24.15;;;12.30;;
38455;SDS011;24237;50.106;20.014;2023-04-06T06:35:46;29.55;;;11.95;;
38455;SDS011;24237;50.106;20.014;2023-04-06T06:38:12;26.90;;;12.23;;
38455;SDS011;24237;50.106;20.014;2023-04-06T06:40:38;26.83;;;11.10;;
38455;SDS011;24237;50.106;20.014;2023-04-06T06:43:04;33.17;;;12.17;;
38455;SDS011;24237;50.106;20.014;2023-04-06T06:45:30;26.17;;;11.10;;
38455;SDS011;24237;50.106;20.014;2023-04-06T06:47:56;26.48;;;11.10;;
38455;SDS011;24237;50.106;20.014;2023-04-06T06:50:21;23.92;;;10.68;;
38455;SDS011;24237;50.106;20.014;2023-04-06T06:52:47;28.05;;;11.30;;
38455;SDS011;24237;50.106;20.014;2023-04-06T06:55:12;24.80;;;10.95;;
38455;SDS011;24237;50.106;20.014;2023-04-06T06:57:38;28.27;;;11.52;;
38455;SDS011;24237;50.106;20.014;2023-04-06T07:00:05;17.80;;;9.38;;
38455;SDS011;24237;50.106;20.014;2023-04-06T07:02:33;21.27;;;10.07;;
38455;SDS011;24237;50.106;20.014;2023-04-06T07:05:00;25.63;;;11.93;;
38455;SDS011;24237;50.106;20.014;2023-04-06T07:07:26;28.58;;;11.80;;
38455;SDS011;24237;50.106;20.014;2023-04-06T07:09:52;21.58;;;9.63;;
38455;SDS011;24237;50.106;20.014;2023-04-06T07:12:18;28.08;;;11.75;;
38455;SDS011;24237;50.106;20.014;2023-04-06T07:14:43;18.15;;;8.38;;
38455;SDS011;24237;50.106;20.014;2023-04-06T07:17:09;21.83;;;10.52;;
38455;SDS011;24237;50.106;20.014;2023-04-06T07:19:35;16.88;;;9.00;;
38455;SDS011;24237;50.106;20.014;2023-04-06T07:22:00;20.38;;;10.13;;
38455;SDS011;24237;50.106;20.014;2023-04-06T07:24:27;22.23;;;10.35;;
38455;SDS011;24237;50.106;20.014;2023-04-06T07:26:52;31.45;;;10.90;;
38455;SDS011;24237;50.106;20.014;2023-04-06T07:29:18;22.13;;;9.00;;
38455;SDS011;24237;50.106;20.014;2023-04-06T07:31:44;15.10;;;7.40;;
38455;SDS011;24237;50.106;20.014;2023-04-06T07:34:10;20.42;;;8.85;;
38455;SDS011;24237;50.106;20.014;2023-04-06T07:36:35;22.80;;;8.80;;
38455;SDS011;24237;50.106;20.014;2023-04-06T07:39:01;18.70;;;10.35;;
38455;SDS011;24237;50.106;20.014;2023-04-06T07:41:27;20.45;;;8.48;;
38455;SDS011;24237;50.106;20.014;2023-04-06T07:43:52;19.13;;;7.45;;
38455;SDS011;24237;50.106;20.014;2023-04-06T07:46:18;20.63;;;7.70;;
38455;SDS011;24237;50.106;20.014;2023-04-06T07:48:43;19.40;;;8.90;;
38455;SDS011;24237;50.106;20.014;2023-04-06T07:51:09;18.25;;;8.32;;
38455;SDS011;24237;50.106;20.014;2023-04-06T07:53:39;16.08;;;8.30;;
38455;SDS011;24237;50.106;20.014;2023-04-06T07:56:04;19.58;;;9.40;;
38455;SDS011;24237;50.106;20.014;2023-04-06T07:58:30;23.58;;;9.32;;
38455;SDS011;24237;50.106;20.014;2023-04-06T08:00:56;17.95;;;8.77;;
38455;SDS011;24237;50.106;20.014;2023-04-06T08:03:22;17.55;;;8.77;;
38455;SDS011;24237;50.106;20.014;2023-04-06T08:08:17;12.43;;;7.18;;
38455;SDS011;24237;50.106;20.014;2023-04-06T08:10:43;21.58;;;9.27;;
38455;SDS011;24237;50.106;20.014;2023-04-06T08:13:08;14.40;;;7.32;;
38455;SDS011;24237;50.106;20.014;2023-04-06T08:15:34;17.10;;;8.52;;
38455;SDS011;24237;50.106;20.014;2023-04-06T08:17:59;12.00;;;6.88;;
38455;SDS011;24237;50.106;20.014;2023-04-06T08:20:25;15.30;;;6.70;;
38455;SDS011;24237;50.106;20.014;2023-04-06T08:22:51;14.18;;;7.25;;
38455;SDS011;24237;50.106;20.014;2023-04-06T08:25:17;20.17;;;7.80;;
38455;SDS011;24237;50.106;20.014;2023-04-06T08:27:42;19.92;;;8.27;;
38455;SDS011;24237;50.106;20.014;2023-04-06T08:30:08;26.65;;;7.93;;
38455;SDS011;24237;50.106;20.014;2023-04-06T08:32:34;18.10;;;8.65;;
38455;SDS011;24237;50.106;20.014;2023-04-06T08:35:00;12.23;;;7.57;;
38455;SDS011;24237;50.106;20.014;2023-04-06T08:37:26;13.30;;;6.80;;
38455;SDS011;24237;50.106;20.014;2023-04-06T08:39:51;16.98;;;6.95;;
38455;SDS011;24237;50.106;20.014;2023-04-06T08:42:19;12.52;;;7.10;;
38455;SDS011;24237;50.106;20.014;2023-04-06T08:44:45;12.82;;;7.03;;
38455;SDS011;24237;50.106;20.014;2023-04-06T08:47:13;10.55;;;6.38;;
38455;SDS011;24237;50.106;20.014;2023-04-06T08:49:39;13.75;;;6.55;;
38455;SDS011;24237;50.106;20.014;2023-04-06T08:52:07;10.85;;;5.95;;
38455;SDS011;24237;50.106;20.014;2023-04-06T08:54:36;13.02;;;6.38;;
38455;SDS011;24237;50.106;20.014;2023-04-06T08:57:02;12.77;;;6.22;;
38455;SDS011;24237;50.106;20.014;2023-04-06T08:59:29;11.63;;;6.90;;
38455;SDS011;24237;50.106;20.014;2023-04-06T09:01:56;11.93;;;6.20;;
38455;SDS011;24237;50.106;20.014;2023-04-06T09:04:22;14.90;;;6.57;;
38455;SDS011;24237;50.106;20.014;2023-04-06T09:06:47;19.70;;;5.80;;
38455;SDS011;24237;50.106;20.014;2023-04-06T09:09:14;20.08;;;6.65;;
38455;SDS011;24237;50.106;20.014;2023-04-06T09:11:47;13.85;;;5.95;;
38455;SDS011;24237;50.106;20.014;2023-04-06T09:14:15;20.38;;;7.55;;
38455;SDS011;24237;50.106;20.014;2023-04-06T09:16:42;13.17;;;6.90;;
38455;SDS011;24237;50.106;20.014;2023-04-06T09:19:10;11.25;;;6.22;;
38455;SDS011;24237;50.106;20.014;2023-04-06T09:21:37;12.27;;;6.07;;
38455;SDS011;24237;50.106;20.014;2023-04-06T09:24:05;15.43;;;7.13;;
38455;SDS011;24237;50.106;20.014;2023-04-06T09:26:32;16.70;;;6.07;;
38455;SDS011;24237;50.106;20.014;2023-04-06T09:29:09;21.70;;;6.60;;
38455;SDS011;24237;50.106;20.014;2023-04-06T09:31:34;10.52;;;5.65;;
38455;SDS011;24237;50.106;20.014;2023-04-06T09:34:00;13.70;;;6.43;;
38455;SDS011;24237;50.106;20.014;2023-04-06T09:36:29;8.90;;;5.35;;
38455;SDS011;24237;50.106;20.014;2023-04-06T09:39:03;12.07;;;6.72;;
38455;SDS011;24237;50.106;20.014;2023-04-06T09:41:33;14.10;;;7.32;;
38455;SDS011;24237;50.106;20.014;2023-04-06T09:46:36;13.40;;;6.50;;
38455;SDS011;24237;50.106;20.014;2023-04-06T09:49:04;21.10;;;7.43;;
38455;SDS011;24237;50.106;20.014;2023-04-06T09:51:31;17.95;;;7.88;;
38455;SDS011;24237;50.106;20.014;2023-04-06T09:54:03;9.82;;;5.60;;
38455;SDS011;24237;50.106;20.014;2023-04-06T09:56:31;17.08;;;7.53;;
38455;SDS011;24237;50.106;20.014;2023-04-06T09:59:05;15.45;;;7.72;;
38455;SDS011;24237;50.106;20.014;2023-04-06T10:01:41;16.67;;;7.40;;
38455;SDS011;24237;50.106;20.014;2023-04-06T10:07:14;18.42;;;8.85;;
38455;SDS011;24237;50.106;20.014;2023-04-06T10:09:42;23.27;;;7.75;;
38455;SDS011;24237;50.106;20.014;2023-04-06T10:12:11;20.52;;;8.10;;
38455;SDS011;24237;50.106;20.014;2023-04-06T10:14:38;13.13;;;7.45;;
38455;SDS011;24237;50.106;20.014;2023-04-06T10:17:06;20.85;;;7.05;;
38455;SDS011;24237;50.106;20.014;2023-04-06T10:19:35;18.83;;;8.13;;
38455;SDS011;24237;50.106;20.014;2023-04-06T10:22:09;20.52;;;7.43;;
38455;SDS011;24237;50.106;20.014;2023-04-06T10:24:40;13.82;;;8.38;;
38455;SDS011;24237;50.106;20.014;2023-04-06T10:27:06;16.92;;;7.28;;
38455;SDS011;24237;50.106;20.014;2023-04-06T10:29:44;24.33;;;8.23;;
38455;SDS011;24237;50.106;20.014;2023-04-06T10:32:11;16.13;;;8.75;;
38455;SDS011;24237;50.106;20.014;2023-04-06T10:34:37;20.73;;;7.93;;
38455;SDS011;24237;50.106;20.014;2023-04-06T10:37:14;21.17;;;8.30;;
38455;SDS011;24237;50.106;20.014;2023-04-06T10:39:49;17.70;;;7.53;;
38455;SDS011;24237;50.106;20.014;2023-04-06T10:42:41;13.10;;;7.60;;
38455;SDS011;24237;50.106;20.014;2023-04-06T10:45:06;16.02;;;8.05;;
38455;SDS011;24237;50.106;20.014;2023-04-06T10:47:43;12.83;;;7.10;;
38455;SDS011;24237;50.106;20.014;2023-04-06T10:50:09;20.85;;;7.82;;
38455;SDS011;24237;50.106;20.014;2023-04-06T10:52:44;15.43;;;7.43;;
38455;SDS011;24237;50.106;20.014;2023-04-06T10:55:11;26.80;;;8.35;;
38455;SDS011;24237;50.106;20.014;2023-04-06T10:57:39;15.23;;;6.75;;
38455;SDS011;24237;50.106;20.014;2023-04-06T11:00:06;16.92;;;6.63;;
38455;SDS011;24237;50.106;20.014;2023-04-06T11:02:33;16.45;;;6.90;;
38455;SDS011;24237;50.106;20.014;2023-04-06T11:05:00;16.45;;;6.80;;
38455;SDS011;24237;50.106;20.014;2023-04-06T11:07:26;17.77;;;7.15;;
38455;SDS011;24237;50.106;20.014;2023-04-06T11:14:59;16.40;;;8.35;;
38455;SDS011;24237;50.106;20.014;2023-04-06T11:17:33;16.63;;;7.10;;
38455;SDS011;24237;50.106;20.014;2023-04-06T11:20:02;17.77;;;8.50;;
38455;SDS011;24237;50.106;20.014;2023-04-06T11:22:30;16.58;;;8.35;;
38455;SDS011;24237;50.106;20.014;2023-04-06T11:25:05;14.02;;;7.60;;
38455;SDS011;24237;50.106;20.014;2023-04-06T11:27:32;15.40;;;7.90;;
38455;SDS011;24237;50.106;20.014;2023-04-06T11:30:04;15.63;;;7.93;;
38455;SDS011;24237;50.106;20.014;2023-04-06T11:32:39;18.58;;;8.07;;
38455;SDS011;24237;50.106;20.014;2023-04-06T11:35:07;17.55;;;9.15;;
38455;SDS011;24237;50.106;20.014;2023-04-06T11:37:35;14.45;;;7.57;;
38455;SDS011;24237;50.106;20.014;2023-04-06T11:40:01;16.02;;;8.77;;
38455;SDS011;24237;50.106;20.014;2023-04-06T11:42:27;15.68;;;9.07;;
38455;SDS011;24237;50.106;20.014;2023-04-06T11:44:55;17.73;;;8.07;;
38455;SDS011;24237;50.106;20.014;2023-04-06T11:47:32;18.80;;;8.68;;
38455;SDS011;24237;50.106;20.014;2023-04-06T11:50:06;15.15;;;9.70;;
38455;SDS011;24237;50.106;20.014;2023-04-06T11:52:37;19.73;;;10.05;;
38455;SDS011;24237;50.106;20.014;2023-04-06T11:55:17;22.48;;;8.88;;
38455;SDS011;24237;50.106;20.014;2023-04-06T11:57:43;16.27;;;9.05;;
38455;SDS011;24237;50.106;20.014;2023-04-06T12:00:10;19.42;;;8.98;;
38455;SDS011;24237;50.106;20.014;2023-04-06T12:02:37;17.52;;;9.40;;
38455;SDS011;24237;50.106;20.014;2023-04-06T12:05:03;22.83;;;9.68;;
38455;SDS011;24237;50.106;20.014;2023-04-06T12:07:30;17.42;;;10.57;;
38455;SDS011;24237;50.106;20.014;2023-04-06T12:09:56;20.63;;;9.75;;
38455;SDS011;24237;50.106;20.014;2023-04-06T12:12:21;18.45;;;10.93;;
38455;SDS011;24237;50.106;20.014;2023-04-06T12:14:47;21.00;;;10.73;;
38455;SDS011;24237;50.106;20.014;2023-04-06T12:17:13;25.70;;;11.80;;
38455;SDS011;24237;50.106;20.014;2023-04-06T12:19:38;22.13;;;10.57;;
38455;SDS011;24237;50.106;20.014;2023-04-06T12:22:04;19.85;;;10.98;;
38455;SDS011;24237;50.106;20.014;2023-04-06T12:24:30;18.52;;;10.50;;
38455;SDS011;24237;50.106;20.014;2023-04-06T12:26:55;22.50;;;11.77;;
38455;SDS011;24237;50.106;20.014;2023-04-06T12:29:22;21.27;;;11.40;;
38455;SDS011;24237;50.106;20.014;2023-04-06T12:31:49;19.17;;;11.68;;
38455;SDS011;24237;50.106;20.014;2023-04-06T12:34:14;19.77;;;12.40;;
38455;SDS011;24237;50.106;20.014;2023-04-06T12:36:40;25.52;;;11.95;;
38455;SDS011;24237;50.106;20.014;2023-04-06T12:39:06;20.08;;;11.10;;
38455;SDS011;24237;50.106;20.014;2023-04-06T12:41:31;27.88;;;13.15;;
38455;SDS011;24237;50.106;20.014;2023-04-06T12:43:57;21.13;;;11.95;;
38455;SDS011;24237;50.106;20.014;2023-04-06T12:46:24;23.07;;;12.77;;
38455;SDS011;24237;50.106;20.014;2023-04-06T12:48:50;25.83;;;13.07;;
38455;SDS011;24237;50.106;20.014;2023-04-06T12:51:18;19.05;;;11.43;;
38455;SDS011;24237;50.106;20.014;2023-04-06T12:53:44;22.25;;;11.95;;
38455;SDS011;24237;50.106;20.014;2023-04-06T12:56:14;22.55;;;12.07;;
38455;SDS011;24237;50.106;20.014;2023-04-06T12:58:42;21.25;;;12.98;;
38455;SDS011;24237;50.106;20.014;2023-04-06T13:01:08;23.30;;;12.63;;
38455;SDS011;24237;50.106;20.014;2023-04-06T13:03:34;26.08;;;12.57;;
38455;SDS011;24237;50.106;20.014;2023-04-06T13:06:00;22.35;;;12.40;;
38455;SDS011;24237;50.106;20.014;2023-04-06T13:08:26;22.73;;;11.75;;
38455;SDS011;24237;50.106;20.014;2023-04-06T13:10:52;24.45;;;11.75;;
38455;SDS011;24237;50.106;20.014;2023-04-06T13:13:22;19.60;;;10.88;;
38455;SDS011;24237;50.106;20.014;2023-04-06T13:15:49;22.58;;;11.70;;
38455;SDS011;24237;50.106;20.014;2023-04-06T13:18:15;22.77;;;11.63;;
38455;SDS011;24237;50.106;20.014;2023-04-06T13:20:41;23.33;;;12.40;;
38455;SDS011;24237;50.106;20.014;2023-04-06T13:23:07;27.98;;;12.98;;
38455;SDS011;24237;50.106;20.014;2023-04-06T13:25:32;25.05;;;13.07;;
38455;SDS011;24237;50.106;20.014;2023-04-06T13:27:58;24.42;;;13.48;;
38455;SDS011;24237;50.106;20.014;2023-04-06T13:30:24;21.85;;;12.82;;
38455;SDS011;24237;50.106;20.014;2023-04-06T13:32:50;21.20;;;12.85;;
38455;SDS011;24237;50.106;20.014;2023-04-06T13:35:16;21.85;;;12.38;;
38455;SDS011;24237;50.106;20.014;2023-04-06T13:37:43;25.05;;;13.38;;
38455;SDS011;24237;50.106;20.014;2023-04-06T13:40:09;24.65;;;14.20;;
38455;SDS011;24237;50.106;20.014;2023-04-06T13:42:35;24.05;;;13.95;;
38455;SDS011;24237;50.106;20.014;2023-04-06T13:45:03;35.10;;;15.88;;
38455;SDS011;24237;50.106;20.014;2023-04-06T13:47:29;30.02;;;14.30;;
38455;SDS011;24237;50.106;20.014;2023-04-06T13:49:55;28.98;;;15.52;;
38455;SDS011;24237;50.106;20.014;2023-04-06T13:52:21;30.15;;;14.68;;
38455;SDS011;24237;50.106;20.014;2023-04-06T13:54:47;27.98;;;15.00;;
38455;SDS011;24237;50.106;20.014;2023-04-06T13:57:13;26.30;;;15.73;;
38455;SDS011;24237;50.106;20.014;2023-04-06T13:59:39;28.05;;;14.98;;
38455;SDS011;24237;50.106;20.014;2023-04-06T14:02:06;30.00;;;13.07;;
38455;SDS011;24237;50.106;20.014;2023-04-06T14:06:59;32.28;;;15.27;;
38455;SDS011;24237;50.106;20.014;2023-04-06T14:09:25;26.70;;;15.15;;
38455;SDS011;24237;50.106;20.014;2023-04-06T14:11:51;37.33;;;14.98;;
38455;SDS011;24237;50.106;20.014;2023-04-06T14:14:18;26.30;;;15.35;;
38455;SDS011;24237;50.106;20.014;2023-04-06T14:16:44;33.45;;;16.00;;
38455;SDS011;24237;50.106;20.014;2023-04-06T14:19:10;28.42;;;15.75;;
38455;SDS011;24237;50.106;20.014;2023-04-06T14:21:39;35.43;;;16.73;;
38455;SDS011;24237;50.106;20.014;2023-04-06T14:24:06;27.08;;;15.85;;
38455;SDS011;24237;50.106;20.014;2023-04-06T14:26:33;31.90;;;15.27;;